sensor_id;sensor_type;location;lat;lon;timestamp;temperature;humidity
24618;DHT22;12762;51.730;5.356;2023-06-22T00:00:01;21.20;59.90
24618;DHT22;12762;51.730;5.356;2023-06-22T00:02:29;21.20;59.30
24618;DHT22;12762;51.730;5.356;2023-06-22T00:04:56;21.10;59.10
24618;DHT22;12762;51.730;5.356;2023-06-22T00:07:23;21.10;59.40
24618;DHT22;12762;51.730;5.356;2023-06-22T00:09:50;21.10;59.00
24618;DHT22;12762;51.730;5.356;2023-06-22T00:12:17;21.00;59.10
24618;DHT22;12762;51.730;5.356;2023-06-22T00:14:44;21.00;59.80
24618;DHT22;12762;51.730;5.356;2023-06-22T00:17:11;21.00;60.40
24618;DHT22;12762;51.730;5.356;2023-06-22T00:19:37;20.90;60.50
24618;DHT22;12762;51.730;5.356;2023-06-22T00:22:07;20.90;60.70
24618;DHT22;12762;51.730;5.356;2023-06-22T00:24:34;20.90;61.10
24618;DHT22;12762;51.730;5.356;2023-06-22T00:27:01;20.80;62.50
24618;DHT22;12762;51.730;5.356;2023-06-22T00:29:28;20.80;61.30
24618;DHT22;12762;51.730;5.356;2023-06-22T00:31:54;20.80;61.80
24618;DHT22;12762;51.730;5.356;2023-06-22T00:34:21;20.70;61.70
24618;DHT22;12762;51.730;5.356;2023-06-22T00:36:48;20.70;62.20
24618;DHT22;12762;51.730;5.356;2023-06-22T00:39:18;20.60;62.00
24618;DHT22;12762;51.730;5.356;2023-06-22T00:41:45;20.60;62.50
24618;DHT22;12762;51.730;5.356;2023-06-22T00:44:12;20.60;61.50
24618;DHT22;12762;51.730;5.356;2023-06-22T00:46:39;20.50;61.80
24618;DHT22;12762;51.730;5.356;2023-06-22T00:49:05;20.50;62.10
24618;DHT22;12762;51.730;5.356;2023-06-22T00:51:33;20.50;62.40
24618;DHT22;12762;51.730;5.356;2023-06-22T00:54:00;20.40;62.50
24618;DHT22;12762;51.730;5.356;2023-06-22T00:56:27;20.40;62.80
24618;DHT22;12762;51.730;5.356;2023-06-22T00:58:58;20.40;62.80
24618;DHT22;12762;51.730;5.356;2023-06-22T01:01:26;20.30;63.40
24618;DHT22;12762;51.730;5.356;2023-06-22T01:03:52;20.30;63.50
24618;DHT22;12762;51.730;5.356;2023-06-22T01:06:29;20.30;63.70
24618;DHT22;12762;51.730;5.356;2023-06-22T01:09:32;20.30;64.10
24618;DHT22;12762;51.730;5.356;2023-06-22T01:12:04;20.20;63.50
24618;DHT22;12762;51.730;5.356;2023-06-22T01:14:37;20.20;64.10
24618;DHT22;12762;51.730;5.356;2023-06-22T01:17:06;20.20;64.10
24618;DHT22;12762;51.730;5.356;2023-06-22T01:19:39;20.20;64.10
24618;DHT22;12762;51.730;5.356;2023-06-22T01:22:10;20.10;64.20
24618;DHT22;12762;51.730;5.356;2023-06-22T01:24:54;20.10;63.90
24618;DHT22;12762;51.730;5.356;2023-06-22T01:30:08;20.10;64.70
24618;DHT22;12762;51.730;5.356;2023-06-22T01:32:38;20.00;64.40
24618;DHT22;12762;51.730;5.356;2023-06-22T01:35:07;20.00;65.30
24618;DHT22;12762;51.730;5.356;2023-06-22T01:37:36;20.00;64.40
24618;DHT22;12762;51.730;5.356;2023-06-22T01:40:05;20.00;64.20
24618;DHT22;12762;51.730;5.356;2023-06-22T01:42:34;19.90;64.70
24618;DHT22;12762;51.730;5.356;2023-06-22T01:45:02;19.90;64.70
24618;DHT22;12762;51.730;5.356;2023-06-22T01:47:29;19.90;64.80
24618;DHT22;12762;51.730;5.356;2023-06-22T01:49:57;19.90;65.10
24618;DHT22;12762;51.730;5.356;2023-06-22T01:52:23;19.90;65.60
24618;DHT22;12762;51.730;5.356;2023-06-22T01:54:50;19.90;65.80
24618;DHT22;12762;51.730;5.356;2023-06-22T01:57:17;19.90;66.00
24618;DHT22;12762;51.730;5.356;2023-06-22T01:59:51;19.90;65.80
24618;DHT22;12762;51.730;5.356;2023-06-22T02:02:20;19.80;65.80
24618;DHT22;12762;51.730;5.356;2023-06-22T02:04:59;19.80;65.70
24618;DHT22;12762;51.730;5.356;2023-06-22T02:07:32;19.80;66.10
24618;DHT22;12762;51.730;5.356;2023-06-22T02:10:02;19.70;66.30
24618;DHT22;12762;51.730;5.356;2023-06-22T02:12:30;19.70;65.60
24618;DHT22;12762;51.730;5.356;2023-06-22T02:14:58;19.70;65.40
24618;DHT22;12762;51.730;5.356;2023-06-22T02:17:27;19.70;65.20
24618;DHT22;12762;51.730;5.356;2023-06-22T02:19:57;19.70;65.40
24618;DHT22;12762;51.730;5.356;2023-06-22T02:22:24;19.70;65.80
24618;DHT22;12762;51.730;5.356;2023-06-22T02:24:51;19.60;65.50
24618;DHT22;12762;51.730;5.356;2023-06-22T02:27:18;19.60;65.60
24618;DHT22;12762;51.730;5.356;2023-06-22T02:29:45;19.60;66.00
24618;DHT22;12762;51.730;5.356;2023-06-22T02:32:11;19.60;66.20
24618;DHT22;12762;51.730;5.356;2023-06-22T02:34:38;19.60;66.60
24618;DHT22;12762;51.730;5.356;2023-06-22T02:37:06;19.60;67.00
24618;DHT22;12762;51.730;5.356;2023-06-22T02:39:33;19.60;67.50
24618;DHT22;12762;51.730;5.356;2023-06-22T02:42:00;19.60;67.80
24618;DHT22;12762;51.730;5.356;2023-06-22T02:44:27;19.60;67.60
24618;DHT22;12762;51.730;5.356;2023-06-22T02:46:54;19.50;67.70
24618;DHT22;12762;51.730;5.356;2023-06-22T02:49:22;19.50;68.00
24618;DHT22;12762;51.730;5.356;2023-06-22T02:51:50;19.50;68.20
24618;DHT22;12762;51.730;5.356;2023-06-22T02:54:17;19.50;68.00
24618;DHT22;12762;51.730;5.356;2023-06-22T02:56:44;19.40;68.20
24618;DHT22;12762;51.730;5.356;2023-06-22T02:59:11;19.40;68.20
24618;DHT22;12762;51.730;5.356;2023-06-22T03:01:38;19.40;67.80
24618;DHT22;12762;51.730;5.356;2023-06-22T03:04:07;19.40;68.20
24618;DHT22;12762;51.730;5.356;2023-06-22T03:06:35;19.30;68.30
24618;DHT22;12762;51.730;5.356;2023-06-22T03:09:04;19.30;68.00
24618;DHT22;12762;51.730;5.356;2023-06-22T03:11:32;19.30;68.20
24618;DHT22;12762;51.730;5.356;2023-06-22T03:14:00;19.30;68.40
24618;DHT22;12762;51.730;5.356;2023-06-22T03:16:28;19.20;68.10
24618;DHT22;12762;51.730;5.356;2023-06-22T03:18:58;19.20;68.50
24618;DHT22;12762;51.730;5.356;2023-06-22T03:21:28;19.20;68.40
24618;DHT22;12762;51.730;5.356;2023-06-22T03:23:55;19.20;68.50
24618;DHT22;12762;51.730;5.356;2023-06-22T03:26:22;19.10;68.20
24618;DHT22;12762;51.730;5.356;2023-06-22T03:28:50;19.10;68.30
24618;DHT22;12762;51.730;5.356;2023-06-22T03:31:17;19.10;68.70
24618;DHT22;12762;51.730;5.356;2023-06-22T03:33:49;19.10;68.70
24618;DHT22;12762;51.730;5.356;2023-06-22T03:36:17;19.10;68.70
24618;DHT22;12762;51.730;5.356;2023-06-22T03:38:48;19.10;68.70
24618;DHT22;12762;51.730;5.356;2023-06-22T03:41:18;19.10;69.10
24618;DHT22;12762;51.730;5.356;2023-06-22T03:43:45;19.10;69.00
24618;DHT22;12762;51.730;5.356;2023-06-22T03:46:11;19.10;68.80
24618;DHT22;12762;51.730;5.356;2023-06-22T03:48:38;19.10;68.70
24618;DHT22;12762;51.730;5.356;2023-06-22T03:51:05;19.00;68.70
24618;DHT22;12762;51.730;5.356;2023-06-22T03:53:32;19.10;68.80
24618;DHT22;12762;51.730;5.356;2023-06-22T03:55:59;19.00;69.00
24618;DHT22;12762;51.730;5.356;2023-06-22T03:58:26;19.00;69.20
24618;DHT22;12762;51.730;5.356;2023-06-22T04:00:53;19.00;69.50
24618;DHT22;12762;51.730;5.356;2023-06-22T04:03:20;19.00;69.50
24618;DHT22;12762;51.730;5.356;2023-06-22T04:05:47;19.00;69.40
24618;DHT22;12762;51.730;5.356;2023-06-22T04:08:15;19.00;69.60
24618;DHT22;12762;51.730;5.356;2023-06-22T04:10:42;19.10;69.80
24618;DHT22;12762;51.730;5.356;2023-06-22T04:13:09;19.10;70.00
24618;DHT22;12762;51.730;5.356;2023-06-22T04:15:36;19.10;70.00
24618;DHT22;12762;51.730;5.356;2023-06-22T04:18:03;19.10;69.70
24618;DHT22;12762;51.730;5.356;2023-06-22T04:20:31;19.10;69.60
24618;DHT22;12762;51.730;5.356;2023-06-22T04:22:59;19.10;70.00
24618;DHT22;12762;51.730;5.356;2023-06-22T04:25:26;19.10;70.00
24618;DHT22;12762;51.730;5.356;2023-06-22T04:27:53;19.10;70.10
24618;DHT22;12762;51.730;5.356;2023-06-22T04:30:20;19.20;70.00
24618;DHT22;12762;51.730;5.356;2023-06-22T04:32:47;19.20;70.10
24618;DHT22;12762;51.730;5.356;2023-06-22T04:35:24;19.30;70.00
24618;DHT22;12762;51.730;5.356;2023-06-22T04:37:53;19.30;70.20
24618;DHT22;12762;51.730;5.356;2023-06-22T04:40:25;19.30;70.00
24618;DHT22;12762;51.730;5.356;2023-06-22T04:42:53;19.30;69.90
24618;DHT22;12762;51.730;5.356;2023-06-22T04:45:21;19.40;70.00
24618;DHT22;12762;51.730;5.356;2023-06-22T04:47:48;19.40;70.10
24618;DHT22;12762;51.730;5.356;2023-06-22T04:50:15;19.40;69.90
24618;DHT22;12762;51.730;5.356;2023-06-22T04:52:42;19.50;70.10
24618;DHT22;12762;51.730;5.356;2023-06-22T04:55:13;19.50;70.10
24618;DHT22;12762;51.730;5.356;2023-06-22T04:57:45;19.50;69.90
24618;DHT22;12762;51.730;5.356;2023-06-22T05:00:19;19.60;69.90
24618;DHT22;12762;51.730;5.356;2023-06-22T05:02:46;19.60;69.90
24618;DHT22;12762;51.730;5.356;2023-06-22T05:05:14;19.70;70.00
24618;DHT22;12762;51.730;5.356;2023-06-22T05:07:46;19.70;70.10
24618;DHT22;12762;51.730;5.356;2023-06-22T05:10:15;19.80;70.10
24618;DHT22;12762;51.730;5.356;2023-06-22T05:12:42;19.80;69.80
24618;DHT22;12762;51.730;5.356;2023-06-22T05:15:09;19.80;69.60
24618;DHT22;12762;51.730;5.356;2023-06-22T05:17:37;19.90;70.00
24618;DHT22;12762;51.730;5.356;2023-06-22T05:20:11;19.90;70.10
24618;DHT22;12762;51.730;5.356;2023-06-22T05:22:41;20.00;70.00
24618;DHT22;12762;51.730;5.356;2023-06-22T05:25:10;20.00;70.10
24618;DHT22;12762;51.730;5.356;2023-06-22T05:27:37;20.00;70.20
24618;DHT22;12762;51.730;5.356;2023-06-22T05:30:07;20.10;70.20
24618;DHT22;12762;51.730;5.356;2023-06-22T05:32:35;20.10;70.20
24618;DHT22;12762;51.730;5.356;2023-06-22T05:35:03;20.20;70.30
24618;DHT22;12762;51.730;5.356;2023-06-22T05:37:30;20.20;70.20
24618;DHT22;12762;51.730;5.356;2023-06-22T05:39:57;20.30;69.80
24618;DHT22;12762;51.730;5.356;2023-06-22T05:42:24;20.40;69.90
24618;DHT22;12762;51.730;5.356;2023-06-22T05:44:53;20.50;69.70
24618;DHT22;12762;51.730;5.356;2023-06-22T05:47:20;20.60;69.80
24618;DHT22;12762;51.730;5.356;2023-06-22T05:49:47;20.70;69.80
24618;DHT22;12762;51.730;5.356;2023-06-22T05:52:14;20.70;69.70
24618;DHT22;12762;51.730;5.356;2023-06-22T05:54:41;20.80;69.80
24618;DHT22;12762;51.730;5.356;2023-06-22T05:57:09;20.90;70.10
24618;DHT22;12762;51.730;5.356;2023-06-22T05:59:36;21.00;70.10
24618;DHT22;12762;51.730;5.356;2023-06-22T06:02:03;21.10;70.10
24618;DHT22;12762;51.730;5.356;2023-06-22T06:04:31;21.20;70.00
24618;DHT22;12762;51.730;5.356;2023-06-22T06:06:58;21.30;70.10
24618;DHT22;12762;51.730;5.356;2023-06-22T06:09:25;21.40;70.20
24618;DHT22;12762;51.730;5.356;2023-06-22T06:11:52;21.50;70.30
24618;DHT22;12762;51.730;5.356;2023-06-22T06:14:19;21.60;70.50
24618;DHT22;12762;51.730;5.356;2023-06-22T06:16:48;21.70;70.60
24618;DHT22;12762;51.730;5.356;2023-06-22T06:19:14;21.80;70.70
24618;DHT22;12762;51.730;5.356;2023-06-22T06:21:41;22.00;71.00
24618;DHT22;12762;51.730;5.356;2023-06-22T06:24:08;22.10;71.00
24618;DHT22;12762;51.730;5.356;2023-06-22T06:26:35;22.30;71.20
24618;DHT22;12762;51.730;5.356;2023-06-22T06:29:02;22.40;70.90
24618;DHT22;12762;51.730;5.356;2023-06-22T06:31:30;22.60;71.00
24618;DHT22;12762;51.730;5.356;2023-06-22T06:33:57;22.70;70.70
24618;DHT22;12762;51.730;5.356;2023-06-22T06:36:26;22.80;70.60
24618;DHT22;12762;51.730;5.356;2023-06-22T06:38:53;22.90;70.70
24618;DHT22;12762;51.730;5.356;2023-06-22T06:41:20;23.00;70.60
24618;DHT22;12762;51.730;5.356;2023-06-22T06:43:47;23.10;70.60
24618;DHT22;12762;51.730;5.356;2023-06-22T06:46:14;23.10;70.40
24618;DHT22;12762;51.730;5.356;2023-06-22T06:48:41;23.30;70.50
24618;DHT22;12762;51.730;5.356;2023-06-22T06:51:09;23.40;70.60
24618;DHT22;12762;51.730;5.356;2023-06-22T06:53:37;23.60;70.60
24618;DHT22;12762;51.730;5.356;2023-06-22T06:56:04;23.80;70.30
24618;DHT22;12762;51.730;5.356;2023-06-22T06:58:32;24.10;70.00
24618;DHT22;12762;51.730;5.356;2023-06-22T07:00:59;24.40;69.50
24618;DHT22;12762;51.730;5.356;2023-06-22T07:03:26;24.80;69.00
24618;DHT22;12762;51.730;5.356;2023-06-22T07:05:53;25.10;69.00
24618;DHT22;12762;51.730;5.356;2023-06-22T07:08:22;25.50;68.20
24618;DHT22;12762;51.730;5.356;2023-06-22T07:10:49;26.00;67.80
24618;DHT22;12762;51.730;5.356;2023-06-22T07:13:16;26.30;66.50
24618;DHT22;12762;51.730;5.356;2023-06-22T07:15:43;26.50;65.40
24618;DHT22;12762;51.730;5.356;2023-06-22T07:18:10;26.50;64.60
24618;DHT22;12762;51.730;5.356;2023-06-22T07:20:37;26.40;64.30
24618;DHT22;12762;51.730;5.356;2023-06-22T07:23:05;26.20;64.50
24618;DHT22;12762;51.730;5.356;2023-06-22T07:25:32;26.10;64.60
24618;DHT22;12762;51.730;5.356;2023-06-22T07:28:04;26.00;64.80
24618;DHT22;12762;51.730;5.356;2023-06-22T07:30:32;26.00;65.10
24618;DHT22;12762;51.730;5.356;2023-06-22T07:33:01;26.00;65.40
24618;DHT22;12762;51.730;5.356;2023-06-22T07:35:34;26.00;65.60
24618;DHT22;12762;51.730;5.356;2023-06-22T07:38:01;26.10;65.60
24618;DHT22;12762;51.730;5.356;2023-06-22T07:40:31;26.20;65.80
24618;DHT22;12762;51.730;5.356;2023-06-22T07:42:58;26.40;65.40
24618;DHT22;12762;51.730;5.356;2023-06-22T07:45:26;26.50;65.10
24618;DHT22;12762;51.730;5.356;2023-06-22T07:47:53;26.70;64.90
24618;DHT22;12762;51.730;5.356;2023-06-22T07:50:21;26.80;64.90
24618;DHT22;12762;51.730;5.356;2023-06-22T07:52:48;26.90;64.60
24618;DHT22;12762;51.730;5.356;2023-06-22T07:55:17;27.00;64.00
24618;DHT22;12762;51.730;5.356;2023-06-22T07:57:46;27.10;63.90
24618;DHT22;12762;51.730;5.356;2023-06-22T08:00:13;27.10;63.70
24618;DHT22;12762;51.730;5.356;2023-06-22T08:02:42;27.10;63.50
24618;DHT22;12762;51.730;5.356;2023-06-22T08:05:09;27.00;63.40
24618;DHT22;12762;51.730;5.356;2023-06-22T08:07:40;27.00;63.30
24618;DHT22;12762;51.730;5.356;2023-06-22T08:10:11;26.90;63.20
24618;DHT22;12762;51.730;5.356;2023-06-22T08:12:39;26.90;63.30
24618;DHT22;12762;51.730;5.356;2023-06-22T08:15:07;26.80;63.30
24618;DHT22;12762;51.730;5.356;2023-06-22T08:17:38;26.80;63.40
24618;DHT22;12762;51.730;5.356;2023-06-22T08:20:07;26.80;63.20
24618;DHT22;12762;51.730;5.356;2023-06-22T08:22:40;26.70;63.00
24618;DHT22;12762;51.730;5.356;2023-06-22T08:25:08;26.70;63.10
24618;DHT22;12762;51.730;5.356;2023-06-22T08:27:36;26.70;63.10
24618;DHT22;12762;51.730;5.356;2023-06-22T08:30:03;26.70;63.00
24618;DHT22;12762;51.730;5.356;2023-06-22T08:32:30;26.70;62.90
24618;DHT22;12762;51.730;5.356;2023-06-22T08:35:00;26.80;63.00
24618;DHT22;12762;51.730;5.356;2023-06-22T08:37:27;26.80;62.80
24618;DHT22;12762;51.730;5.356;2023-06-22T08:40:14;26.80;62.50
24618;DHT22;12762;51.730;5.356;2023-06-22T08:42:41;26.70;62.60
24618;DHT22;12762;51.730;5.356;2023-06-22T08:45:08;26.70;62.40
24618;DHT22;12762;51.730;5.356;2023-06-22T08:47:36;26.60;62.50
24618;DHT22;12762;51.730;5.356;2023-06-22T08:50:03;26.50;62.20
24618;DHT22;12762;51.730;5.356;2023-06-22T08:52:30;26.50;62.20
24618;DHT22;12762;51.730;5.356;2023-06-22T08:54:57;26.40;62.00
24618;DHT22;12762;51.730;5.356;2023-06-22T08:57:28;26.40;62.00
24618;DHT22;12762;51.730;5.356;2023-06-22T08:59:55;26.40;62.00
24618;DHT22;12762;51.730;5.356;2023-06-22T09:02:26;26.30;62.00
24618;DHT22;12762;51.730;5.356;2023-06-22T09:04:58;26.30;62.10
24618;DHT22;12762;51.730;5.356;2023-06-22T09:07:25;26.30;61.70
24618;DHT22;12762;51.730;5.356;2023-06-22T09:09:53;26.20;61.50
24618;DHT22;12762;51.730;5.356;2023-06-22T09:12:20;26.20;61.50
24618;DHT22;12762;51.730;5.356;2023-06-22T09:14:51;26.20;61.60
24618;DHT22;12762;51.730;5.356;2023-06-22T09:17:18;26.10;61.40
24618;DHT22;12762;51.730;5.356;2023-06-22T09:19:45;26.10;61.30
24618;DHT22;12762;51.730;5.356;2023-06-22T09:22:12;26.10;61.20
24618;DHT22;12762;51.730;5.356;2023-06-22T09:24:39;26.10;61.10
24618;DHT22;12762;51.730;5.356;2023-06-22T09:27:06;26.00;60.90
24618;DHT22;12762;51.730;5.356;2023-06-22T09:29:34;26.00;61.20
24618;DHT22;12762;51.730;5.356;2023-06-22T09:32:01;26.00;61.00
24618;DHT22;12762;51.730;5.356;2023-06-22T09:34:28;26.00;60.90
24618;DHT22;12762;51.730;5.356;2023-06-22T09:36:58;26.00;60.90
24618;DHT22;12762;51.730;5.356;2023-06-22T09:39:33;26.00;60.80
24618;DHT22;12762;51.730;5.356;2023-06-22T09:42:00;25.90;60.60
24618;DHT22;12762;51.730;5.356;2023-06-22T09:44:27;26.00;60.90
24618;DHT22;12762;51.730;5.356;2023-06-22T09:46:54;25.90;61.20
24618;DHT22;12762;51.730;5.356;2023-06-22T09:49:20;25.90;61.40
24618;DHT22;12762;51.730;5.356;2023-06-22T09:52:07;25.90;61.40
24618;DHT22;12762;51.730;5.356;2023-06-22T09:54:34;25.90;61.60
24618;DHT22;12762;51.730;5.356;2023-06-22T09:57:01;25.90;61.40
24618;DHT22;12762;51.730;5.356;2023-06-22T09:59:28;25.90;61.40
24618;DHT22;12762;51.730;5.356;2023-06-22T10:01:55;25.90;61.40
24618;DHT22;12762;51.730;5.356;2023-06-22T10:04:22;25.90;61.40
24618;DHT22;12762;51.730;5.356;2023-06-22T10:06:50;25.90;61.30
24618;DHT22;12762;51.730;5.356;2023-06-22T10:09:17;25.80;61.00
24618;DHT22;12762;51.730;5.356;2023-06-22T10:11:43;25.80;61.00
24618;DHT22;12762;51.730;5.356;2023-06-22T10:14:14;25.80;61.10
24618;DHT22;12762;51.730;5.356;2023-06-22T10:16:41;25.80;61.30
24618;DHT22;12762;51.730;5.356;2023-06-22T10:19:08;25.80;61.30
24618;DHT22;12762;51.730;5.356;2023-06-22T10:21:35;25.80;61.60
24618;DHT22;12762;51.730;5.356;2023-06-22T10:24:02;25.80;61.70
24618;DHT22;12762;51.730;5.356;2023-06-22T10:26:33;25.80;61.50
24618;DHT22;12762;51.730;5.356;2023-06-22T10:29:04;25.80;61.40
24618;DHT22;12762;51.730;5.356;2023-06-22T10:31:34;25.80;61.30
24618;DHT22;12762;51.730;5.356;2023-06-22T10:34:00;25.80;61.20
24618;DHT22;12762;51.730;5.356;2023-06-22T10:36:27;25.70;61.20
24618;DHT22;12762;51.730;5.356;2023-06-22T10:38:54;25.70;61.10
24618;DHT22;12762;51.730;5.356;2023-06-22T10:41:22;25.70;61.10
24618;DHT22;12762;51.730;5.356;2023-06-22T10:43:49;25.70;61.30
24618;DHT22;12762;51.730;5.356;2023-06-22T10:46:15;25.70;61.40
24618;DHT22;12762;51.730;5.356;2023-06-22T10:48:45;25.60;61.50
24618;DHT22;12762;51.730;5.356;2023-06-22T10:51:12;25.70;61.80
24618;DHT22;12762;51.730;5.356;2023-06-22T10:53:39;25.70;62.00
24618;DHT22;12762;51.730;5.356;2023-06-22T10:56:05;25.70;61.90
24618;DHT22;12762;51.730;5.356;2023-06-22T10:58:33;25.70;61.70
24618;DHT22;12762;51.730;5.356;2023-06-22T11:01:00;25.70;61.70
24618;DHT22;12762;51.730;5.356;2023-06-22T11:03:29;25.80;61.50
24618;DHT22;12762;51.730;5.356;2023-06-22T11:05:55;25.80;61.60
24618;DHT22;12762;51.730;5.356;2023-06-22T11:08:22;25.80;61.40
24618;DHT22;12762;51.730;5.356;2023-06-22T11:10:51;25.90;61.50
24618;DHT22;12762;51.730;5.356;2023-06-22T11:13:18;25.90;61.20
24618;DHT22;12762;51.730;5.356;2023-06-22T11:15:45;25.90;61.10
24618;DHT22;12762;51.730;5.356;2023-06-22T11:18:12;25.90;61.10
24618;DHT22;12762;51.730;5.356;2023-06-22T11:20:39;25.90;61.40
24618;DHT22;12762;51.730;5.356;2023-06-22T11:23:07;26.00;61.60
24618;DHT22;12762;51.730;5.356;2023-06-22T11:25:34;26.00;62.20
24618;DHT22;12762;51.730;5.356;2023-06-22T11:28:04;26.00;62.00
24618;DHT22;12762;51.730;5.356;2023-06-22T11:30:31;26.00;62.00
24618;DHT22;12762;51.730;5.356;2023-06-22T11:32:59;26.00;62.50
24618;DHT22;12762;51.730;5.356;2023-06-22T11:35:26;25.90;62.60
24618;DHT22;12762;51.730;5.356;2023-06-22T11:37:53;25.90;62.60
24618;DHT22;12762;51.730;5.356;2023-06-22T11:40:20;25.80;62.70
24618;DHT22;12762;51.730;5.356;2023-06-22T11:42:47;25.80;62.90
24618;DHT22;12762;51.730;5.356;2023-06-22T11:45:14;25.70;63.20
24618;DHT22;12762;51.730;5.356;2023-06-22T11:47:41;25.70;63.20
24618;DHT22;12762;51.730;5.356;2023-06-22T11:50:08;25.70;63.90
24618;DHT22;12762;51.730;5.356;2023-06-22T11:52:35;25.60;64.10
24618;DHT22;12762;51.730;5.356;2023-06-22T11:55:03;25.40;64.00
24618;DHT22;12762;51.730;5.356;2023-06-22T11:57:39;25.30;64.20
24618;DHT22;12762;51.730;5.356;2023-06-22T12:00:18;25.20;64.40
24618;DHT22;12762;51.730;5.356;2023-06-22T12:02:45;25.10;65.10
24618;DHT22;12762;51.730;5.356;2023-06-22T12:05:12;24.90;65.40
24618;DHT22;12762;51.730;5.356;2023-06-22T12:07:39;24.80;65.80
24618;DHT22;12762;51.730;5.356;2023-06-22T12:10:09;24.80;66.50
24618;DHT22;12762;51.730;5.356;2023-06-22T12:12:36;24.70;66.90
24618;DHT22;12762;51.730;5.356;2023-06-22T12:15:03;24.60;67.20
24618;DHT22;12762;51.730;5.356;2023-06-22T12:17:30;24.60;67.90
24618;DHT22;12762;51.730;5.356;2023-06-22T12:19:58;24.50;68.00
24618;DHT22;12762;51.730;5.356;2023-06-22T12:22:25;24.40;68.20
24618;DHT22;12762;51.730;5.356;2023-06-22T12:24:52;24.30;68.50
24618;DHT22;12762;51.730;5.356;2023-06-22T12:27:19;24.30;69.30
24618;DHT22;12762;51.730;5.356;2023-06-22T12:29:46;24.10;69.40
24618;DHT22;12762;51.730;5.356;2023-06-22T12:32:13;24.00;69.50
24618;DHT22;12762;51.730;5.356;2023-06-22T12:34:42;24.00;69.70
24618;DHT22;12762;51.730;5.356;2023-06-22T12:37:10;23.90;69.90
24618;DHT22;12762;51.730;5.356;2023-06-22T12:39:37;23.80;70.00
24618;DHT22;12762;51.730;5.356;2023-06-22T12:42:04;23.80;70.00
24618;DHT22;12762;51.730;5.356;2023-06-22T12:44:31;23.70;70.40
24618;DHT22;12762;51.730;5.356;2023-06-22T12:46:57;23.60;70.70
24618;DHT22;12762;51.730;5.356;2023-06-22T12:49:24;23.50;70.80
24618;DHT22;12762;51.730;5.356;2023-06-22T12:51:51;23.40;71.20
24618;DHT22;12762;51.730;5.356;2023-06-22T12:54:23;23.30;71.10
24618;DHT22;12762;51.730;5.356;2023-06-22T12:56:51;23.20;71.50
24618;DHT22;12762;51.730;5.356;2023-06-22T12:59:22;23.20;71.50
24618;DHT22;12762;51.730;5.356;2023-06-22T13:01:49;23.10;71.20
24618;DHT22;12762;51.730;5.356;2023-06-22T13:04:16;23.00;71.30
24618;DHT22;12762;51.730;5.356;2023-06-22T13:06:45;22.90;72.40
24618;DHT22;12762;51.730;5.356;2023-06-22T13:09:17;22.80;72.20
24618;DHT22;12762;51.730;5.356;2023-06-22T13:11:47;22.80;72.40
24618;DHT22;12762;51.730;5.356;2023-06-22T13:14:14;22.70;72.50
24618;DHT22;12762;51.730;5.356;2023-06-22T13:16:42;22.70;72.70
24618;DHT22;12762;51.730;5.356;2023-06-22T13:19:09;22.70;73.00
24618;DHT22;12762;51.730;5.356;2023-06-22T13:21:36;22.60;72.90
24618;DHT22;12762;51.730;5.356;2023-06-22T13:24:03;22.60;73.10
24618;DHT22;12762;51.730;5.356;2023-06-22T13:26:33;22.50;73.20
24618;DHT22;12762;51.730;5.356;2023-06-22T13:29:00;22.50;73.40
24618;DHT22;12762;51.730;5.356;2023-06-22T13:31:27;22.40;73.60
24618;DHT22;12762;51.730;5.356;2023-06-22T13:33:54;22.40;73.70
24618;DHT22;12762;51.730;5.356;2023-06-22T13:36:21;22.30;73.80
24618;DHT22;12762;51.730;5.356;2023-06-22T13:38:49;22.30;74.10
24618;DHT22;12762;51.730;5.356;2023-06-22T13:41:16;22.30;74.20
24618;DHT22;12762;51.730;5.356;2023-06-22T13:43:43;22.30;74.60
24618;DHT22;12762;51.730;5.356;2023-06-22T13:46:10;22.30;74.80
24618;DHT22;12762;51.730;5.356;2023-06-22T13:48:37;22.30;75.10
24618;DHT22;12762;51.730;5.356;2023-06-22T13:51:04;22.20;74.80
24618;DHT22;12762;51.730;5.356;2023-06-22T13:53:32;22.30;75.20
24618;DHT22;12762;51.730;5.356;2023-06-22T13:55:58;22.20;75.20
24618;DHT22;12762;51.730;5.356;2023-06-22T13:58:25;22.20;75.10
24618;DHT22;12762;51.730;5.356;2023-06-22T14:00:52;22.20;75.20
24618;DHT22;12762;51.730;5.356;2023-06-22T14:03:23;22.20;75.10
24618;DHT22;12762;51.730;5.356;2023-06-22T14:05:53;22.20;75.10
24618;DHT22;12762;51.730;5.356;2023-06-22T14:08:22;22.10;75.30
24618;DHT22;12762;51.730;5.356;2023-06-22T14:11:07;22.10;75.40
24618;DHT22;12762;51.730;5.356;2023-06-22T14:13:34;22.10;75.40
24618;DHT22;12762;51.730;5.356;2023-06-22T14:16:02;22.00;75.50
24618;DHT22;12762;51.730;5.356;2023-06-22T14:18:30;22.00;75.50
24618;DHT22;12762;51.730;5.356;2023-06-22T14:20:57;21.90;75.60
24618;DHT22;12762;51.730;5.356;2023-06-22T14:23:24;21.80;75.70
24618;DHT22;12762;51.730;5.356;2023-06-22T14:25:51;21.80;75.80
24618;DHT22;12762;51.730;5.356;2023-06-22T14:28:18;21.80;76.00
24618;DHT22;12762;51.730;5.356;2023-06-22T14:30:45;21.70;76.10
24618;DHT22;12762;51.730;5.356;2023-06-22T14:33:12;21.70;76.10
24618;DHT22;12762;51.730;5.356;2023-06-22T14:35:40;21.60;76.30
24618;DHT22;12762;51.730;5.356;2023-06-22T14:38:07;21.60;76.30
24618;DHT22;12762;51.730;5.356;2023-06-22T14:40:33;21.50;76.20
24618;DHT22;12762;51.730;5.356;2023-06-22T14:43:13;21.50;76.50
24618;DHT22;12762;51.730;5.356;2023-06-22T14:45:40;21.40;76.40
24618;DHT22;12762;51.730;5.356;2023-06-22T14:48:08;21.40;76.60
24618;DHT22;12762;51.730;5.356;2023-06-22T14:50:35;21.40;76.40
24618;DHT22;12762;51.730;5.356;2023-06-22T14:53:05;21.40;76.50
24618;DHT22;12762;51.730;5.356;2023-06-22T14:55:32;21.40;76.60
24618;DHT22;12762;51.730;5.356;2023-06-22T14:57:59;21.30;76.70
24618;DHT22;12762;51.730;5.356;2023-06-22T15:00:26;21.30;76.90
24618;DHT22;12762;51.730;5.356;2023-06-22T15:02:52;21.30;77.10
24618;DHT22;12762;51.730;5.356;2023-06-22T15:05:20;21.20;77.30
24618;DHT22;12762;51.730;5.356;2023-06-22T15:07:47;21.20;77.40
24618;DHT22;12762;51.730;5.356;2023-06-22T15:10:13;21.20;77.50
24618;DHT22;12762;51.730;5.356;2023-06-22T15:12:41;21.10;77.50
24618;DHT22;12762;51.730;5.356;2023-06-22T15:15:09;21.10;77.70
24618;DHT22;12762;51.730;5.356;2023-06-22T15:17:36;21.10;77.90
24618;DHT22;12762;51.730;5.356;2023-06-22T15:20:02;21.10;78.20
24618;DHT22;12762;51.730;5.356;2023-06-22T15:22:32;21.10;78.50
24618;DHT22;12762;51.730;5.356;2023-06-22T15:24:59;21.10;78.60
24618;DHT22;12762;51.730;5.356;2023-06-22T15:27:26;21.00;78.50
24618;DHT22;12762;51.730;5.356;2023-06-22T15:29:52;21.00;78.50
24618;DHT22;12762;51.730;5.356;2023-06-22T15:32:19;21.00;78.70
24618;DHT22;12762;51.730;5.356;2023-06-22T15:34:46;21.00;78.90
24618;DHT22;12762;51.730;5.356;2023-06-22T15:37:13;21.00;79.20